createdAt,value
2023-03-26T00:00:44.487Z,82.1
2023-03-26T00:02:00.784Z,82
2023-03-26T00:03:17.068Z,82.4
2023-03-26T00:04:33.359Z,82.3
2023-03-26T00:05:48.686Z,82.6
2023-03-26T00:07:04.981Z,82.6
2023-03-26T00:08:21.268Z,82.6
2023-03-26T00:09:37.553Z,83.3
2023-03-26T00:10:53.856Z,83.9
2023-03-26T00:12:10.148Z,83.5
2023-03-26T00:13:26.446Z,83.8
2023-03-26T00:14:42.732Z,84.3
2023-03-26T00:15:59.019Z,84.4
2023-03-26T00:17:15.314Z,84.6
2023-03-26T00:18:31.607Z,84.7
2023-03-26T00:19:47.917Z,84.6
2023-03-26T00:21:04.206Z,85
2023-03-26T00:22:19.506Z,85.4
2023-03-26T00:23:35.803Z,85.5
2023-03-26T00:24:52.109Z,85.6
2023-03-26T00:26:08.396Z,85.8
2023-03-26T00:27:24.686Z,86.2
2023-03-26T00:28:40.993Z,86.2
2023-03-26T00:29:57.288Z,86.3
2023-03-26T00:31:13.571Z,86.7
2023-03-26T00:32:29.855Z,87.1
2023-03-26T00:33:46.151Z,87.7
2023-03-26T00:35:02.455Z,87.8
2023-03-26T00:36:18.750Z,87.9
2023-03-26T00:37:35.031Z,88.1
2023-03-26T00:38:50.355Z,88.4
2023-03-26T00:40:06.642Z,88.3
2023-03-26T00:41:22.932Z,88.7
2023-03-26T00:42:39.229Z,89.1
2023-03-26T00:43:55.537Z,89.1
2023-03-26T00:45:11.824Z,89.3
2023-03-26T00:46:28.113Z,89.4
2023-03-26T00:47:44.404Z,89.4
2023-03-26T00:49:00.704Z,89.3
2023-03-26T00:50:16.994Z,89.4
2023-03-26T00:51:33.287Z,89.3
2023-03-26T00:52:49.587Z,89.3
2023-03-26T00:54:05.869Z,89.3
2023-03-26T00:55:21.177Z,89.4
2023-03-26T00:56:37.491Z,89.4
2023-03-26T00:57:53.773Z,88.9
2023-03-26T00:59:10.061Z,88.7
2023-03-26T01:00:26.359Z,88.7
2023-03-26T01:01:42.643Z,88.5
2023-03-26T01:02:58.936Z,88.5
2023-03-26T01:04:15.227Z,88.8
2023-03-26T01:05:31.542Z,88.7
2023-03-26T01:06:47.815Z,88.8
2023-03-26T01:08:04.119Z,89
2023-03-26T01:09:20.403Z,88.8
2023-03-26T01:10:36.699Z,88.9
2023-03-26T01:11:52.018Z,88.9
2023-03-26T01:13:08.300Z,88.8
2023-03-26T01:14:24.599Z,88.9
2023-03-26T01:15:40.897Z,88.8
2023-03-26T01:16:57.188Z,88.8
2023-03-26T01:18:13.486Z,88.9
2023-03-26T01:19:29.783Z,88.9
2023-03-26T01:20:46.071Z,88.8
2023-03-26T01:22:02.367Z,88.9
2023-03-26T01:23:18.649Z,88.9
2023-03-26T01:24:34.953Z,88.9
2023-03-26T01:25:51.246Z,89
2023-03-26T01:27:07.531Z,89.2
2023-03-26T01:28:22.854Z,89.5
2023-03-26T01:29:39.143Z,89.5
2023-03-26T01:30:55.436Z,89.7
2023-03-26T01:32:11.737Z,89.5
2023-03-26T01:33:28.021Z,89.7
2023-03-26T01:34:44.318Z,89.7
2023-03-26T01:36:00.627Z,89.2
2023-03-26T01:37:16.901Z,89.5
2023-03-26T01:38:33.201Z,89.8
2023-03-26T01:39:49.495Z,89.9
2023-03-26T01:41:05.778Z,90.1
2023-03-26T01:42:22.087Z,90.4
2023-03-26T01:43:38.370Z,90.4
2023-03-26T01:44:53.682Z,90.7
2023-03-26T01:46:09.985Z,90.7
2023-03-26T01:47:26.274Z,90.2
2023-03-26T01:48:42.566Z,89.7
2023-03-26T01:49:58.848Z,89.9
2023-03-26T01:51:15.162Z,89.9
2023-03-26T01:52:31.439Z,89.8
2023-03-26T01:53:47.749Z,89.9
2023-03-26T01:55:04.030Z,90
2023-03-26T01:56:20.319Z,89.8
2023-03-26T01:57:36.625Z,89.9
2023-03-26T01:58:52.911Z,89.8
2023-03-26T02:00:09.197Z,89.6
2023-03-26T02:01:24.527Z,89.7
2023-03-26T02:02:40.820Z,89.6
2023-03-26T02:03:57.101Z,89.5
2023-03-26T02:05:13.401Z,89.6
2023-03-26T02:06:29.686Z,89.8
2023-03-26T02:07:45.980Z,89.7
2023-03-26T02:09:01.000Z,89.8
2023-03-26T02:10:17.605Z,90
2023-03-26T02:11:33.887Z,90
2023-03-26T02:12:50.191Z,90.1
2023-03-26T02:14:06.474Z,89.7
2023-03-26T02:15:22.765Z,89.6
2023-03-26T02:16:39.078Z,89.6
2023-03-26T02:17:55.361Z,89.6
2023-03-26T02:19:11.642Z,89.6
2023-03-26T02:20:27.944Z,89.5
2023-03-26T02:21:44.231Z,89.5
2023-03-26T02:23:00.539Z,89.2
2023-03-26T02:24:16.834Z,89.2
2023-03-26T02:25:32.135Z,89.2
2023-03-26T02:26:48.429Z,89.2
2023-03-26T02:28:04.718Z,89
2023-03-26T02:29:21.011Z,89.2
2023-03-26T02:30:37.312Z,89.1
2023-03-26T02:31:53.611Z,89.2
2023-03-26T02:33:09.901Z,89.1
2023-03-26T02:34:26.197Z,89.2
2023-03-26T02:35:42.480Z,89.4
2023-03-26T02:36:58.781Z,89.3
2023-03-26T02:38:15.076Z,89.5
2023-03-26T02:39:31.363Z,89.6
2023-03-26T02:40:47.667Z,89.8
2023-03-26T02:42:02.969Z,89.7
2023-03-26T02:43:19.261Z,89.9
2023-03-26T02:44:35.558Z,90
2023-03-26T02:45:51.858Z,90.1
2023-03-26T02:47:08.145Z,90.3
2023-03-26T02:48:24.435Z,90.6
2023-03-26T02:49:40.726Z,90.8
2023-03-26T02:50:57.031Z,90.9
2023-03-26T02:52:13.320Z,91
2023-03-26T02:53:29.619Z,91
2023-03-26T02:54:45.908Z,91
2023-03-26T02:56:02.198Z,91
2023-03-26T02:57:18.495Z,91.1
2023-03-26T02:58:33.808Z,91.2
2023-03-26T02:59:50.100Z,91.2
2023-03-26T03:01:06.389Z,91.3
2023-03-26T03:02:22.688Z,91.2
2023-03-26T03:03:38.983Z,91.3
2023-03-26T03:04:55.275Z,91.4
2023-03-26T03:06:11.569Z,91.5
2023-03-26T03:07:27.856Z,91.6
2023-03-26T03:08:44.139Z,91.7
2023-03-26T03:10:00.445Z,91.6
2023-03-26T03:11:16.741Z,91.7
2023-03-26T03:12:33.026Z,91.7
2023-03-26T03:13:49.325Z,91.7
2023-03-26T03:15:04.630Z,91.5
2023-03-26T03:16:20.943Z,91.4
2023-03-26T03:17:37.214Z,91.5
2023-03-26T03:18:53.520Z,91.5
2023-03-26T03:20:09.807Z,91.6
2023-03-26T03:21:26.106Z,91.6
2023-03-26T03:22:42.400Z,91.7
2023-03-26T03:23:58.688Z,91.7
2023-03-26T03:25:14.986Z,91.7
2023-03-26T03:26:31.268Z,91.7
2023-03-26T03:27:47.559Z,91.8
2023-03-26T03:29:03.853Z,91.8
2023-03-26T03:30:20.146Z,91.8
2023-03-26T03:31:35.467Z,91.7
2023-03-26T03:32:51.748Z,91.7
2023-03-26T03:34:08.055Z,91.7
2023-03-26T03:35:24.349Z,91.6
2023-03-26T03:36:40.636Z,91.5
2023-03-26T03:37:56.938Z,91.6
2023-03-26T03:39:13.232Z,91.5
2023-03-26T03:40:29.509Z,91.4
2023-03-26T03:41:45.828Z,91.4
2023-03-26T03:43:02.117Z,91.3
2023-03-26T03:44:18.404Z,91.3
2023-03-26T03:45:34.689Z,91.3
2023-03-26T03:46:50.983Z,91.1
2023-03-26T03:48:06.288Z,91
2023-03-26T03:49:22.581Z,90.8
2023-03-26T03:50:38.874Z,90.8
2023-03-26T03:51:55.190Z,90.7
2023-03-26T03:53:11.476Z,90.5
2023-03-26T03:54:27.771Z,90.3
2023-03-26T03:55:44.065Z,90.2
2023-03-26T03:57:00.342Z,90.2
2023-03-26T03:58:16.658Z,90.2
2023-03-26T03:59:32.931Z,90.2
2023-03-26T04:00:49.227Z,90.2
2023-03-26T04:02:05.522Z,90.1
2023-03-26T04:03:21.827Z,90.2
2023-03-26T04:04:37.152Z,89.8
2023-03-26T04:05:53.416Z,89.5
2023-03-26T04:07:09.718Z,89.4
2023-03-26T04:08:26.017Z,89.4
2023-03-26T04:09:42.297Z,89.1
2023-03-26T04:10:58.604Z,89
2023-03-26T04:12:14.888Z,88.8
2023-03-26T04:13:31.189Z,88.7
2023-03-26T04:14:47.479Z,88.7
2023-03-26T04:16:03.769Z,88.8
2023-03-26T04:17:20.061Z,88.7
2023-03-26T04:18:36.359Z,88.5
2023-03-26T04:19:52.654Z,88.6
2023-03-26T04:21:07.969Z,88.6
2023-03-26T04:22:24.259Z,88.6
2023-03-26T04:23:40.563Z,88.6
2023-03-26T04:24:56.843Z,88.6
2023-03-26T04:26:13.149Z,88.7
2023-03-26T04:27:29.448Z,88.6
2023-03-26T04:28:45.731Z,88.6
2023-03-26T04:30:02.010Z,88.7
2023-03-26T04:31:18.319Z,88.8
2023-03-26T04:32:34.557Z,88.8
2023-03-26T04:33:50.854Z,88.8
2023-03-26T04:35:07.154Z,88.8
2023-03-26T04:36:23.387Z,88.7
2023-03-26T04:37:38.717Z,88.6
2023-03-26T04:38:55.010Z,88.5
2023-03-26T04:40:11.282Z,88.6
2023-03-26T04:41:27.592Z,88.5
2023-03-26T04:42:43.883Z,88.4
2023-03-26T04:44:00.143Z,88.4
2023-03-26T04:45:16.360Z,88.3
2023-03-26T04:46:32.614Z,88.3
2023-03-26T04:47:48.862Z,88.4
2023-03-26T04:49:05.098Z,88.5
2023-03-26T04:50:21.337Z,88.6
2023-03-26T04:51:37.590Z,88.6
2023-03-26T04:52:53.804Z,88.7
2023-03-26T04:54:09.062Z,88.8
2023-03-26T04:55:25.299Z,88.7
2023-03-26T04:56:41.548Z,88.8
2023-03-26T04:57:57.790Z,88.9
2023-03-26T04:59:14.013Z,89.1
2023-03-26T05:00:30.275Z,89.1
2023-03-26T05:01:46.515Z,89.1
2023-03-26T05:03:02.740Z,89.1
2023-03-26T05:04:18.976Z,89
2023-03-26T05:05:35.221Z,88.9
2023-03-26T05:06:51.450Z,88.9
2023-03-26T05:08:07.700Z,88.9
2023-03-26T05:09:23.933Z,88.8
2023-03-26T05:10:39.184Z,88.9
2023-03-26T05:11:55.451Z,88.9
2023-03-26T05:13:11.676Z,88.7
2023-03-26T05:14:27.920Z,88.6
2023-03-26T05:15:44.157Z,88.7
2023-03-26T05:17:00.393Z,88.5
2023-03-26T05:18:16.632Z,88.4
2023-03-26T05:19:32.882Z,88.4
2023-03-26T05:20:49.138Z,88.5
2023-03-26T05:22:05.362Z,88.5
2023-03-26T05:23:21.613Z,88.2
2023-03-26T05:24:37.826Z,88.1
2023-03-26T05:25:54.068Z,88.1
2023-03-26T05:27:09.320Z,87.8
2023-03-26T05:28:25.585Z,87.7
2023-03-26T05:29:41.805Z,87.9
2023-03-26T05:30:58.044Z,88
2023-03-26T05:32:14.291Z,88
2023-03-26T05:33:30.538Z,88
2023-03-26T05:34:46.777Z,87.8
2023-03-26T05:36:03.024Z,87.7
2023-03-26T05:37:19.245Z,87.6
2023-03-26T05:38:35.486Z,87.5
2023-03-26T05:39:51.735Z,87.6
2023-03-26T05:41:07.962Z,87.6
2023-03-26T05:42:24.215Z,87.7
2023-03-26T05:43:39.467Z,87.6
2023-03-26T05:44:55.707Z,87.7
2023-03-26T05:46:11.941Z,87.9
2023-03-26T05:47:28.183Z,87.8
2023-03-26T05:48:44.439Z,87.6
2023-03-26T05:50:00.657Z,87.6
2023-03-26T05:51:16.895Z,87.4
2023-03-26T05:52:33.133Z,87.3
2023-03-26T05:53:49.382Z,87.7
2023-03-26T05:55:05.646Z,87.7
2023-03-26T05:56:21.866Z,87.6
2023-03-26T05:57:38.109Z,88
2023-03-26T05:58:54.351Z,88
2023-03-26T06:00:09.599Z,87.9
2023-03-26T06:01:25.837Z,87.7
2023-03-26T06:02:42.082Z,87.6
2023-03-26T06:03:58.324Z,87.9
2023-03-26T06:05:14.563Z,87.8
2023-03-26T06:06:30.804Z,87.7
2023-03-26T06:07:47.046Z,87.7
2023-03-26T06:09:03.299Z,87.5
2023-03-26T06:10:19.533Z,87.6
2023-03-26T06:11:35.768Z,87.5
2023-03-26T06:12:52.003Z,87.5
2023-03-26T06:14:08.230Z,87.6
2023-03-26T06:15:24.474Z,87.1
2023-03-26T06:16:39.729Z,87.3
2023-03-26T06:17:55.989Z,87.3
2023-03-26T06:19:12.227Z,87
2023-03-26T06:20:28.470Z,87.3
2023-03-26T06:21:44.703Z,87.2
2023-03-26T06:23:00.945Z,86.8
2023-03-26T06:24:16.201Z,86.8
2023-03-26T06:25:32.435Z,87.1
2023-03-26T06:26:48.682Z,86.9
2023-03-26T06:28:04.912Z,86.9
2023-03-26T06:29:21.146Z,87
2023-03-26T06:30:37.385Z,86.9
2023-03-26T06:31:53.645Z,87
2023-03-26T06:33:09.879Z,86.9
2023-03-26T06:34:26.120Z,86.7
2023-03-26T06:35:42.369Z,87
2023-03-26T06:36:58.584Z,86.9
2023-03-26T06:38:14.841Z,87
2023-03-26T06:39:31.073Z,86.9
2023-03-26T06:40:46.328Z,86.6
2023-03-26T06:42:02.568Z,86.2
2023-03-26T06:43:18.813Z,86.2
2023-03-26T06:44:35.046Z,86.3
2023-03-26T06:45:51.294Z,86.4
2023-03-26T06:47:07.522Z,86
2023-03-26T06:48:23.779Z,85.8
2023-03-26T06:49:39.999Z,85.8
2023-03-26T06:50:56.254Z,85.9
2023-03-26T06:52:12.484Z,85.9
2023-03-26T06:53:28.731Z,85.7
2023-03-26T06:54:44.981Z,85.8
2023-03-26T06:56:01.205Z,85.6
2023-03-26T06:57:16.459Z,85.4
2023-03-26T06:58:32.693Z,85.6
2023-03-26T06:59:48.939Z,85.5
2023-03-26T07:01:05.191Z,85.5
2023-03-26T07:02:21.431Z,85.2
2023-03-26T07:03:37.669Z,85.6
2023-03-26T07:04:53.909Z,86.7
2023-03-26T07:06:10.140Z,85.1
2023-03-26T07:07:26.373Z,85.2
2023-03-26T07:08:42.611Z,85
2023-03-26T07:09:58.859Z,84.9
2023-03-26T07:11:15.097Z,84.6
2023-03-26T07:12:31.354Z,84.9
2023-03-26T07:13:46.615Z,84.8
2023-03-26T07:15:02.831Z,85.1
2023-03-26T07:16:19.083Z,85.1
2023-03-26T07:17:35.315Z,85.1
2023-03-26T07:18:51.550Z,84.6
2023-03-26T07:20:07.801Z,84.7
2023-03-26T07:21:24.040Z,84.3
2023-03-26T07:22:40.261Z,84
2023-03-26T07:23:56.521Z,84.3
2023-03-26T07:25:12.774Z,83.8
2023-03-26T07:26:28.980Z,84.1
2023-03-26T07:27:45.224Z,84.1
2023-03-26T07:29:01.471Z,84.1
2023-03-26T07:30:16.715Z,83.7
2023-03-26T07:31:32.966Z,83.6
2023-03-26T07:32:49.219Z,83.7
2023-03-26T07:34:05.465Z,83.1
2023-03-26T07:35:21.674Z,83.2
2023-03-26T07:36:37.914Z,83.1
2023-03-26T07:37:54.156Z,83.2
2023-03-26T07:39:10.419Z,82.7
2023-03-26T07:40:26.656Z,83
2023-03-26T07:41:42.889Z,82.7
2023-03-26T07:42:59.112Z,82.9
2023-03-26T07:44:15.000Z,83
2023-03-26T07:45:31.616Z,82.7
2023-03-26T07:46:46.857Z,82.2
2023-03-26T07:48:03.110Z,82.4
2023-03-26T07:49:19.335Z,82.4
2023-03-26T07:50:35.591Z,82.4
2023-03-26T07:51:51.808Z,81.2
2023-03-26T07:53:08.051Z,81.5
2023-03-26T07:54:24.287Z,81.7
2023-03-26T07:55:40.545Z,81.5
2023-03-26T07:56:56.763Z,81.1
2023-03-26T07:58:13.021Z,81
2023-03-26T07:59:29.248Z,80.9
2023-03-26T08:00:45.492Z,80.4
2023-03-26T08:02:01.742Z,80.3
2023-03-26T08:03:16.981Z,79.7
2023-03-26T08:04:33.249Z,79.7
2023-03-26T08:05:49.459Z,79.6
2023-03-26T08:07:05.704Z,79.5
2023-03-26T08:08:21.961Z,79.6
2023-03-26T08:09:38.176Z,79.8
2023-03-26T08:10:54.424Z,80.4
2023-03-26T08:12:10.673Z,79.6
2023-03-26T08:13:26.921Z,79.6
2023-03-26T08:14:43.150Z,79.5
2023-03-26T08:15:59.393Z,79.9
2023-03-26T08:17:15.633Z,79.6
2023-03-26T08:18:31.860Z,79.3
2023-03-26T08:19:47.115Z,79
2023-03-26T08:21:03.385Z,78.9
2023-03-26T08:22:19.605Z,79.3
2023-03-26T08:23:35.862Z,79.1
2023-03-26T08:24:52.070Z,78.8
2023-03-26T08:26:08.342Z,78.8
2023-03-26T08:27:24.573Z,79.2
2023-03-26T08:28:40.815Z,78.9
2023-03-26T08:29:57.045Z,78.7
2023-03-26T08:31:13.289Z,78.3
2023-03-26T08:32:29.527Z,78.5
2023-03-26T08:33:45.753Z,78.9
2023-03-26T08:35:01.992Z,78.5
2023-03-26T08:36:17.269Z,79.2
2023-03-26T08:37:33.485Z,78.9
2023-03-26T08:38:49.722Z,78.7
2023-03-26T08:40:05.996Z,78.8
2023-03-26T08:41:22.202Z,79
2023-03-26T08:42:38.457Z,78.9
2023-03-26T08:43:54.688Z,79.2
2023-03-26T08:45:10.955Z,79.1
2023-03-26T08:46:27.190Z,78.8
2023-03-26T08:47:43.403Z,78
2023-03-26T08:48:59.649Z,78.6
2023-03-26T08:50:15.914Z,77.7
2023-03-26T08:51:32.132Z,77.7
2023-03-26T08:52:47.401Z,77.7
2023-03-26T08:54:03.626Z,77.8
2023-03-26T08:55:19.873Z,77.5
2023-03-26T08:56:36.120Z,77.3
2023-03-26T08:57:52.339Z,77
2023-03-26T08:59:08.584Z,77.6
2023-03-26T09:00:24.830Z,76.7
2023-03-26T09:01:41.078Z,76.7
2023-03-26T09:02:57.300Z,77.2
2023-03-26T09:04:13.535Z,76.3
2023-03-26T09:05:29.792Z,76.1
2023-03-26T09:06:46.032Z,75.9
2023-03-26T09:08:02.256Z,76
2023-03-26T09:09:17.518Z,76.1
2023-03-26T09:10:33.760Z,76.5
2023-03-26T09:11:50.002Z,76.6
2023-03-26T09:13:06.249Z,75
2023-03-26T09:14:22.488Z,75.7
2023-03-26T09:15:38.733Z,74.9
2023-03-26T09:16:54.970Z,74.9
2023-03-26T09:18:11.191Z,74.8
2023-03-26T09:19:27.455Z,74.6
2023-03-26T09:20:43.692Z,74.4
2023-03-26T09:21:59.927Z,74.7
2023-03-26T09:23:16.156Z,74.1
2023-03-26T09:24:32.416Z,73.9
2023-03-26T09:25:48.638Z,73.9
2023-03-26T09:27:03.891Z,74.2
2023-03-26T09:28:20.127Z,74.8
2023-03-26T09:29:36.000Z,73
2023-03-26T09:30:52.616Z,72.8
2023-03-26T09:32:08.848Z,74.1
2023-03-26T09:33:25.106Z,73.4
2023-03-26T09:34:41.348Z,73.2
2023-03-26T09:35:57.573Z,73.8
2023-03-26T09:37:13.814Z,73.5
2023-03-26T09:38:30.068Z,73.4
2023-03-26T09:39:46.311Z,73
2023-03-26T09:41:02.549Z,72.8
2023-03-26T09:42:18.777Z,73.3
2023-03-26T09:43:34.043Z,72.5
2023-03-26T09:44:50.277Z,72.3
2023-03-26T09:46:06.505Z,72.2
2023-03-26T09:47:22.756Z,72.4
2023-03-26T09:48:39.020Z,72.7
2023-03-26T09:49:55.231Z,72.6
2023-03-26T09:51:11.472Z,72.3
2023-03-26T09:52:27.711Z,72.4
2023-03-26T09:53:43.963Z,72.3
2023-03-26T09:55:00.203Z,72.3
2023-03-26T09:56:16.440Z,71.7
2023-03-26T09:57:32.694Z,71.9
2023-03-26T09:58:48.918Z,72
2023-03-26T10:00:04.159Z,72.3
2023-03-26T10:01:20.406Z,72.3
2023-03-26T10:02:36.658Z,71.6
2023-03-26T10:03:52.915Z,71.3
2023-03-26T10:05:09.128Z,72.1
2023-03-26T10:06:25.390Z,71.8
2023-03-26T10:07:41.599Z,71.6
2023-03-26T10:08:57.846Z,71.4
2023-03-26T10:10:14.115Z,70.6
2023-03-26T10:11:30.339Z,69.8
2023-03-26T10:12:46.573Z,69.7
2023-03-26T10:14:02.815Z,70.1
2023-03-26T10:15:19.047Z,70.3
2023-03-26T10:16:34.309Z,69.8
2023-03-26T10:17:50.562Z,70.6
2023-03-26T10:19:06.777Z,69.3
2023-03-26T10:20:23.041Z,69.8
2023-03-26T10:21:39.270Z,70.5
2023-03-26T10:22:55.517Z,68.9
2023-03-26T10:24:11.734Z,68.3
2023-03-26T10:25:28.007Z,69.5
2023-03-26T10:26:44.218Z,69.6
2023-03-26T10:28:00.461Z,70
2023-03-26T10:29:16.698Z,69.6
2023-03-26T10:30:32.969Z,69.6
2023-03-26T10:31:49.181Z,69.8
2023-03-26T10:33:04.448Z,70.6
2023-03-26T10:34:20.691Z,70.3
2023-03-26T10:35:36.911Z,70.3
2023-03-26T10:36:53.165Z,68.7
2023-03-26T10:38:09.419Z,67.7
2023-03-26T10:39:24.669Z,66.2
2023-03-26T10:40:40.914Z,67.2
2023-03-26T10:41:57.144Z,66.8
2023-03-26T10:43:13.371Z,66
2023-03-26T10:44:29.614Z,66.8
2023-03-26T10:45:45.864Z,66.8
2023-03-26T10:47:02.121Z,64.9
2023-03-26T10:48:18.355Z,66
2023-03-26T10:49:34.589Z,66.7
2023-03-26T10:50:50.809Z,67.3
2023-03-26T10:52:07.057Z,67
2023-03-26T10:53:23.289Z,66.4
2023-03-26T10:54:39.551Z,65.5
2023-03-26T10:55:54.816Z,65.3
2023-03-26T10:57:11.027Z,64.5
2023-03-26T10:58:27.289Z,65.2
2023-03-26T10:59:43.530Z,65.7
2023-03-26T11:00:59.771Z,65.5
2023-03-26T11:02:15.989Z,64.2
2023-03-26T11:03:32.242Z,64.3
2023-03-26T11:04:48.480Z,65.4
2023-03-26T11:06:04.729Z,65.8
2023-03-26T11:07:20.947Z,65.5
2023-03-26T11:08:37.195Z,65.2
2023-03-26T11:09:53.425Z,66.2
2023-03-26T11:11:09.686Z,65.2
2023-03-26T11:12:24.000Z,65.4
2023-03-26T11:13:41.158Z,65.6
2023-03-26T11:14:57.422Z,66.8
2023-03-26T11:16:13.668Z,66.6
2023-03-26T11:17:29.880Z,66.5
2023-03-26T11:18:46.142Z,65.9
2023-03-26T11:20:02.362Z,65.6
2023-03-26T11:21:18.619Z,66
2023-03-26T11:22:34.840Z,66.9
2023-03-26T11:23:51.101Z,66.5
2023-03-26T11:25:07.320Z,66.7
2023-03-26T11:26:23.576Z,65.8
2023-03-26T11:27:39.818Z,65.2
2023-03-26T11:28:55.073Z,64.3
2023-03-26T11:30:11.296Z,66
2023-03-26T11:31:27.562Z,64.9
2023-03-26T11:32:43.805Z,64.8
2023-03-26T11:34:00.019Z,63.9
2023-03-26T11:35:16.269Z,63.6
2023-03-26T11:36:32.507Z,63.3
2023-03-26T11:37:48.761Z,62.9
2023-03-26T11:39:04.975Z,62.7
2023-03-26T11:40:21.227Z,62.4
2023-03-26T11:41:37.470Z,62
2023-03-26T11:42:53.695Z,63.1
2023-03-26T11:44:09.927Z,63
2023-03-26T11:45:25.195Z,63.2
2023-03-26T11:46:41.434Z,63.6
2023-03-26T11:47:57.669Z,63.8
2023-03-26T11:49:13.904Z,64.5
2023-03-26T11:50:30.139Z,64.5
2023-03-26T11:51:46.383Z,64.6
2023-03-26T11:53:02.619Z,65.7
2023-03-26T11:54:18.860Z,65.4
2023-03-26T11:55:35.113Z,64.4
2023-03-26T11:56:51.338Z,64.8
2023-03-26T11:58:07.581Z,64.8
2023-03-26T11:59:23.837Z,65
2023-03-26T12:00:40.076Z,65.8
2023-03-26T12:01:55.312Z,65.2
2023-03-26T12:03:11.578Z,66.3
2023-03-26T12:04:27.821Z,67.1
2023-03-26T12:05:44.053Z,67.5
2023-03-26T12:07:00.290Z,67.4
2023-03-26T12:08:16.517Z,65.5
2023-03-26T12:09:32.753Z,65.4
2023-03-26T12:10:49.021Z,65.6
2023-03-26T12:12:05.263Z,66
2023-03-26T12:13:21.478Z,66.9
2023-03-26T12:14:37.734Z,67.6
2023-03-26T12:15:53.950Z,67.3
2023-03-26T12:17:10.202Z,67.2
2023-03-26T12:18:25.458Z,65.4
2023-03-26T12:19:41.705Z,65.5
2023-03-26T12:20:57.942Z,65.7
2023-03-26T12:22:14.187Z,63
2023-03-26T12:23:30.436Z,63.9
2023-03-26T12:24:46.650Z,64.1
2023-03-26T12:26:02.901Z,63.7
2023-03-26T12:27:19.148Z,64.9
2023-03-26T12:28:35.362Z,64
2023-03-26T12:29:51.605Z,63.4
2023-03-26T12:31:07.838Z,63.9
2023-03-26T12:32:24.083Z,63.6
2023-03-26T12:33:40.332Z,63.5
2023-03-26T12:34:55.605Z,63.7
2023-03-26T12:36:11.832Z,63.4
2023-03-26T12:37:28.069Z,64.1
2023-03-26T12:38:44.323Z,63.7
2023-03-26T12:40:00.539Z,64
2023-03-26T12:41:16.778Z,64.4
2023-03-26T12:42:33.016Z,65.3
2023-03-26T12:43:49.254Z,67.4
2023-03-26T12:45:05.520Z,69.4
2023-03-26T12:46:21.735Z,70.6
2023-03-26T12:47:37.981Z,70.9
2023-03-26T12:48:54.222Z,71
2023-03-26T12:50:10.491Z,70.9
2023-03-26T12:51:25.713Z,71.2
2023-03-26T12:52:41.946Z,71.2
2023-03-26T12:53:58.195Z,71.8
2023-03-26T12:55:14.437Z,72.2
2023-03-26T12:56:30.681Z,72.2
2023-03-26T12:57:46.909Z,72.4
2023-03-26T12:59:03.175Z,72.6
2023-03-26T13:00:19.391Z,73.2
2023-03-26T13:01:35.634Z,73.6
2023-03-26T13:02:51.890Z,74.7
2023-03-26T13:04:08.130Z,77.2
2023-03-26T13:05:24.354Z,79.6
2023-03-26T13:06:40.602Z,81.7
2023-03-26T13:07:55.873Z,84.1
2023-03-26T13:09:12.099Z,84
2023-03-26T13:10:28.353Z,83.7
2023-03-26T13:11:44.580Z,83.2
2023-03-26T13:13:00.821Z,84
2023-03-26T13:14:17.046Z,83.3
2023-03-26T13:15:33.318Z,81.6
2023-03-26T13:16:49.528Z,80.9
2023-03-26T13:18:05.777Z,81.1
2023-03-26T13:19:22.011Z,81.3
2023-03-26T13:20:38.248Z,83.1
2023-03-26T13:21:54.501Z,83.4
2023-03-26T13:23:10.750Z,82.6
2023-03-26T13:24:26.005Z,83.2
2023-03-26T13:25:42.250Z,83.4
2023-03-26T13:26:58.469Z,82.9
2023-03-26T13:28:14.714Z,81.3
2023-03-26T13:29:30.963Z,82.7
2023-03-26T13:30:47.189Z,81.9
2023-03-26T13:32:03.457Z,83.2
2023-03-26T13:33:19.667Z,83.6
2023-03-26T13:34:35.919Z,83.4
2023-03-26T13:35:52.151Z,82.1
2023-03-26T13:37:08.396Z,83.2
2023-03-26T13:38:24.626Z,84.3
2023-03-26T13:39:40.862Z,83.8
2023-03-26T13:40:56.135Z,83.7
2023-03-26T13:42:12.360Z,85
2023-03-26T13:43:28.617Z,85.3
2023-03-26T13:44:44.861Z,85.2
2023-03-26T13:46:01.103Z,84.7
2023-03-26T13:47:17.318Z,85.3
2023-03-26T13:48:33.590Z,85.5
2023-03-26T13:49:49.819Z,85.2
2023-03-26T13:51:06.076Z,84.8
2023-03-26T13:52:22.278Z,85.3
2023-03-26T13:53:38.549Z,86.5
2023-03-26T13:54:54.796Z,86.7
2023-03-26T13:56:11.002Z,87.6
2023-03-26T13:57:26.266Z,88.3
2023-03-26T13:58:42.507Z,87.9
2023-03-26T13:59:58.744Z,88.4
2023-03-26T14:01:14.978Z,87.8
2023-03-26T14:02:31.233Z,87.5
2023-03-26T14:03:47.463Z,87.7
2023-03-26T14:05:03.709Z,87.8
2023-03-26T14:06:19.968Z,87.4
2023-03-26T14:07:36.186Z,87
2023-03-26T14:08:52.421Z,86.7
2023-03-26T14:10:08.672Z,86.8
2023-03-26T14:11:24.901Z,86.2
2023-03-26T14:12:41.144Z,86.8
2023-03-26T14:13:56.401Z,88.2
2023-03-26T14:15:12.637Z,88
2023-03-26T14:16:28.900Z,87.8
2023-03-26T14:17:45.121Z,87.3
2023-03-26T14:19:01.362Z,86.9
2023-03-26T14:20:17.609Z,86.3
2023-03-26T14:21:33.833Z,85.5
2023-03-26T14:22:50.094Z,85.2
2023-03-26T14:24:06.321Z,86.5
2023-03-26T14:25:22.551Z,87
2023-03-26T14:26:38.806Z,87.2
2023-03-26T14:27:55.030Z,87.5
2023-03-26T14:29:11.269Z,87.4
2023-03-26T14:30:26.533Z,88.1
2023-03-26T14:31:42.780Z,88.5
2023-03-26T14:32:59.007Z,88.3
2023-03-26T14:34:15.261Z,87.7
2023-03-26T14:35:31.503Z,88.5
2023-03-26T14:36:47.731Z,88.5
2023-03-26T14:38:03.993Z,88.9
2023-03-26T14:39:20.207Z,89.6
2023-03-26T14:40:36.447Z,89.5
2023-03-26T14:41:52.691Z,89.6
2023-03-26T14:43:08.947Z,89.1
2023-03-26T14:44:25.180Z,89.1
2023-03-26T14:45:41.424Z,88.7
2023-03-26T14:46:56.683Z,88.5
2023-03-26T14:48:12.945Z,88.5
2023-03-26T14:49:29.170Z,88.7
2023-03-26T14:50:45.393Z,88.5
2023-03-26T14:52:01.638Z,88.2
2023-03-26T14:53:17.876Z,88
2023-03-26T14:54:33.136Z,88.9
2023-03-26T14:55:49.381Z,88.1
2023-03-26T14:57:05.620Z,88.2
2023-03-26T14:58:21.853Z,88.2
2023-03-26T14:59:38.115Z,88.1
2023-03-26T15:00:54.328Z,88.8
2023-03-26T15:02:10.565Z,88.4
2023-03-26T15:03:26.838Z,88.2
2023-03-26T15:04:43.046Z,88.4
2023-03-26T15:05:59.314Z,88.6
2023-03-26T15:07:15.528Z,89
2023-03-26T15:08:31.779Z,89.6
2023-03-26T15:09:48.032Z,89.7
2023-03-26T15:11:03.295Z,89.9
2023-03-26T15:12:19.499Z,90.4
2023-03-26T15:13:35.767Z,90.6
2023-03-26T15:14:51.983Z,91.4
2023-03-26T15:16:08.219Z,92
2023-03-26T15:17:24.498Z,92.3
2023-03-26T15:18:40.705Z,92.6
2023-03-26T15:19:56.938Z,93.3
2023-03-26T15:21:13.195Z,93.6
2023-03-26T15:22:29.456Z,94.2
2023-03-26T15:23:45.687Z,94.4
2023-03-26T15:25:01.900Z,93.9
2023-03-26T15:26:18.165Z,94.7
2023-03-26T15:27:33.409Z,94.4
2023-03-26T15:28:49.681Z,94.5
2023-03-26T15:30:05.906Z,95.2
2023-03-26T15:31:22.133Z,95.9
2023-03-26T15:32:38.360Z,96
2023-03-26T15:33:54.611Z,96.7
2023-03-26T15:35:10.866Z,96.8
2023-03-26T15:36:27.088Z,97.1
2023-03-26T15:37:43.320Z,97.4
2023-03-26T15:38:59.587Z,97.4
2023-03-26T15:40:15.832Z,97.3
2023-03-26T15:41:32.072Z,97.5
2023-03-26T15:42:48.326Z,98.3
2023-03-26T15:44:03.558Z,98.4
2023-03-26T15:45:19.789Z,98.6
2023-03-26T15:46:36.061Z,98.8
2023-03-26T15:47:52.295Z,98.5
2023-03-26T15:49:08.508Z,98.2
2023-03-26T15:50:24.780Z,98.5
2023-03-26T15:51:41.017Z,98.8
2023-03-26T15:52:57.223Z,98.6
2023-03-26T15:54:13.486Z,98.7
2023-03-26T15:55:29.727Z,98.8
2023-03-26T15:56:45.946Z,98.9
2023-03-26T15:58:02.192Z,98.1
2023-03-26T15:59:18.419Z,98.6
2023-03-26T16:00:33.705Z,98.2
2023-03-26T16:01:49.920Z,98
2023-03-26T16:03:06.190Z,98.6
2023-03-26T16:04:22.424Z,98.9
2023-03-26T16:05:38.654Z,99.1
2023-03-26T16:06:54.876Z,99.1
2023-03-26T16:08:11.118Z,99.1
2023-03-26T16:09:27.356Z,98.9
2023-03-26T16:10:43.624Z,98.7
2023-03-26T16:11:59.877Z,98.8
2023-03-26T16:13:16.088Z,98.9
2023-03-26T16:14:32.325Z,98.7
2023-03-26T16:15:48.560Z,99.1
2023-03-26T16:17:03.849Z,98.8
2023-03-26T16:18:20.086Z,98.8
2023-03-26T16:19:36.325Z,98.6
2023-03-26T16:20:52.575Z,98.7
2023-03-26T16:22:08.790Z,98.6
2023-03-26T16:23:25.030Z,98.6
2023-03-26T16:24:41.287Z,98.4
2023-03-26T16:25:57.496Z,98.7
2023-03-26T16:27:13.777Z,98.8
2023-03-26T16:28:29.983Z,98.6
2023-03-26T16:29:46.247Z,98.8
2023-03-26T16:31:02.468Z,98.7
2023-03-26T16:32:18.707Z,98.8
2023-03-26T16:33:33.951Z,98.6
2023-03-26T16:34:50.224Z,98.7
2023-03-26T16:36:06.431Z,98.7
2023-03-26T16:37:22.699Z,98.7
2023-03-26T16:38:38.914Z,98.7
2023-03-26T16:39:55.182Z,98.5
2023-03-26T16:41:11.396Z,98.2
2023-03-26T16:42:27.657Z,98.2
2023-03-26T16:43:43.872Z,98.3
2023-03-26T16:45:00.125Z,98.5
2023-03-26T16:46:16.390Z,98.5
2023-03-26T16:47:32.608Z,98.2
2023-03-26T16:48:48.837Z,98.2
2023-03-26T16:50:04.121Z,98
2023-03-26T16:51:20.341Z,98.1
2023-03-26T16:52:36.611Z,98
2023-03-26T16:53:52.818Z,97.4
2023-03-26T16:55:09.083Z,97.4
2023-03-26T16:56:25.298Z,97.6
2023-03-26T16:57:41.562Z,97.9
2023-03-26T16:58:57.774Z,98.1
2023-03-26T17:00:14.040Z,98.2